sensor_id;sensor_type;location;lat;lon;timestamp;P1;durP1;ratioP1;P2;durP2;ratioP2
4430;SDS011;2228;48.140;11.488;2023-02-01T00:01:22;4.40;;;2.83;;
4430;SDS011;2228;48.140;11.488;2023-02-01T00:03:49;4.30;;;2.60;;
4430;SDS011;2228;48.140;11.488;2023-02-01T00:06:16;5.25;;;2.70;;
4430;SDS011;2228;48.140;11.488;2023-02-01T00:08:43;5.32;;;3.03;;
4430;SDS011;2228;48.140;11.488;2023-02-01T00:11:12;3.90;;;2.70;;
4430;SDS011;2228;48.140;11.488;2023-02-01T00:13:40;4.63;;;2.53;;
4430;SDS011;2228;48.140;11.488;2023-02-01T00:16:08;4.43;;;2.60;;
4430;SDS011;2228;48.140;11.488;2023-02-01T00:18:37;4.50;;;2.67;;
4430;SDS011;2228;48.140;11.488;2023-02-01T00:21:04;3.95;;;2.20;;
4430;SDS011;2228;48.140;11.488;2023-02-01T00:23:32;3.47;;;2.40;;
4430;SDS011;2228;48.140;11.488;2023-02-01T00:26:00;4.10;;;2.30;;
4430;SDS011;2228;48.140;11.488;2023-02-01T00:28:29;3.67;;;2.20;;
4430;SDS011;2228;48.140;11.488;2023-02-01T00:30:56;4.07;;;2.60;;
4430;SDS011;2228;48.140;11.488;2023-02-01T00:33:23;5.07;;;2.50;;
4430;SDS011;2228;48.140;11.488;2023-02-01T00:35:50;4.45;;;2.38;;
4430;SDS011;2228;48.140;11.488;2023-02-01T00:38:17;3.25;;;2.47;;
4430;SDS011;2228;48.140;11.488;2023-02-01T00:40:47;5.57;;;2.45;;
4430;SDS011;2228;48.140;11.488;2023-02-01T00:43:15;4.35;;;2.70;;
4430;SDS011;2228;48.140;11.488;2023-02-01T00:45:43;4.72;;;3.20;;
4430;SDS011;2228;48.140;11.488;2023-02-01T00:48:11;6.57;;;3.27;;
4430;SDS011;2228;48.140;11.488;2023-02-01T00:50:40;5.07;;;3.10;;
4430;SDS011;2228;48.140;11.488;2023-02-01T00:53:08;4.97;;;2.65;;
4430;SDS011;2228;48.140;11.488;2023-02-01T00:55:35;5.65;;;3.35;;
4430;SDS011;2228;48.140;11.488;2023-02-01T00:58:02;5.97;;;4.00;;
4430;SDS011;2228;48.140;11.488;2023-02-01T01:00:31;5.13;;;3.30;;
4430;SDS011;2228;48.140;11.488;2023-02-01T01:06:03;8.23;;;3.90;;
4430;SDS011;2228;48.140;11.488;2023-02-01T01:08:32;8.32;;;3.88;;
4430;SDS011;2228;48.140;11.488;2023-02-01T01:11:05;6.53;;;4.15;;
4430;SDS011;2228;48.140;11.488;2023-02-01T01:13:33;8.60;;;3.67;;
4430;SDS011;2228;48.140;11.488;2023-02-01T01:16:01;8.30;;;4.20;;
4430;SDS011;2228;48.140;11.488;2023-02-01T01:18:29;7.25;;;4.20;;
4430;SDS011;2228;48.140;11.488;2023-02-01T01:20:59;6.47;;;3.80;;
4430;SDS011;2228;48.140;11.488;2023-02-01T01:23:27;7.65;;;4.15;;
4430;SDS011;2228;48.140;11.488;2023-02-01T01:25:54;7.70;;;4.00;;
4430;SDS011;2228;48.140;11.488;2023-02-01T01:28:21;7.70;;;4.40;;
4430;SDS011;2228;48.140;11.488;2023-02-01T01:30:49;8.25;;;4.35;;
4430;SDS011;2228;48.140;11.488;2023-02-01T01:33:16;7.00;;;4.30;;
4430;SDS011;2228;48.140;11.488;2023-02-01T01:35:45;8.50;;;5.10;;
4430;SDS011;2228;48.140;11.488;2023-02-01T01:38:14;9.05;;;4.55;;
4430;SDS011;2228;48.140;11.488;2023-02-01T01:40:44;7.70;;;3.70;;
4430;SDS011;2228;48.140;11.488;2023-02-01T01:46:03;6.20;;;3.88;;
4430;SDS011;2228;48.140;11.488;2023-02-01T01:48:30;8.52;;;5.05;;
4430;SDS011;2228;48.140;11.488;2023-02-01T01:50:58;10.00;;;5.00;;
4430;SDS011;2228;48.140;11.488;2023-02-01T01:53:33;10.27;;;5.57;;
4430;SDS011;2228;48.140;11.488;2023-02-01T01:56:04;10.18;;;5.57;;
4430;SDS011;2228;48.140;11.488;2023-02-01T01:58:34;9.10;;;5.45;;
4430;SDS011;2228;48.140;11.488;2023-02-01T02:01:01;10.23;;;5.80;;
4430;SDS011;2228;48.140;11.488;2023-02-01T02:03:32;9.57;;;5.75;;
4430;SDS011;2228;48.140;11.488;2023-02-01T02:06:09;9.35;;;6.13;;
4430;SDS011;2228;48.140;11.488;2023-02-01T02:08:45;13.50;;;5.93;;
4430;SDS011;2228;48.140;11.488;2023-02-01T02:11:14;11.23;;;5.95;;
4430;SDS011;2228;48.140;11.488;2023-02-01T02:13:44;12.45;;;6.28;;
4430;SDS011;2228;48.140;11.488;2023-02-01T02:16:20;10.50;;;6.63;;
4430;SDS011;2228;48.140;11.488;2023-02-01T02:22:59;11.70;;;6.17;;
4430;SDS011;2228;48.140;11.488;2023-02-01T02:26:03;11.77;;;6.20;;
4430;SDS011;2228;48.140;11.488;2023-02-01T02:28:57;7.72;;;4.90;;
4430;SDS011;2228;48.140;11.488;2023-02-01T02:31:52;10.77;;;5.50;;
4430;SDS011;2228;48.140;11.488;2023-02-01T02:34:55;7.47;;;4.32;;
4430;SDS011;2228;48.140;11.488;2023-02-01T02:37:28;9.90;;;5.60;;
4430;SDS011;2228;48.140;11.488;2023-02-01T02:40:07;9.05;;;4.20;;
4430;SDS011;2228;48.140;11.488;2023-02-01T02:42:43;8.93;;;5.63;;
4430;SDS011;2228;48.140;11.488;2023-02-01T02:45:35;10.02;;;5.35;;
4430;SDS011;2228;48.140;11.488;2023-02-01T02:48:29;8.07;;;5.30;;
4430;SDS011;2228;48.140;11.488;2023-02-01T02:51:07;10.23;;;5.20;;
4430;SDS011;2228;48.140;11.488;2023-02-01T02:53:55;8.48;;;5.30;;
4430;SDS011;2228;48.140;11.488;2023-02-01T02:56:44;7.10;;;4.70;;
4430;SDS011;2228;48.140;11.488;2023-02-01T02:59:28;9.10;;;4.70;;
4430;SDS011;2228;48.140;11.488;2023-02-01T03:02:14;8.73;;;5.10;;
4430;SDS011;2228;48.140;11.488;2023-02-01T03:04:59;7.83;;;4.77;;
4430;SDS011;2228;48.140;11.488;2023-02-01T03:10:33;7.72;;;4.97;;
4430;SDS011;2228;48.140;11.488;2023-02-01T03:13:11;9.38;;;4.40;;
4430;SDS011;2228;48.140;11.488;2023-02-01T03:15:49;6.35;;;3.65;;
4430;SDS011;2228;48.140;11.488;2023-02-01T03:18:24;7.53;;;4.43;;
4430;SDS011;2228;48.140;11.488;2023-02-01T03:20:56;7.28;;;4.32;;
4430;SDS011;2228;48.140;11.488;2023-02-01T03:23:33;7.72;;;4.70;;
4430;SDS011;2228;48.140;11.488;2023-02-01T03:26:04;7.00;;;4.07;;
4430;SDS011;2228;48.140;11.488;2023-02-01T03:28:35;7.45;;;4.47;;
4430;SDS011;2228;48.140;11.488;2023-02-01T03:31:05;7.88;;;3.83;;
4430;SDS011;2228;48.140;11.488;2023-02-01T03:33:33;8.48;;;4.05;;
4430;SDS011;2228;48.140;11.488;2023-02-01T03:36:02;6.70;;;4.07;;
4430;SDS011;2228;48.140;11.488;2023-02-01T03:38:42;7.30;;;4.10;;
4430;SDS011;2228;48.140;11.488;2023-02-01T03:41:17;5.70;;;3.47;;
4430;SDS011;2228;48.140;11.488;2023-02-01T03:43:51;5.93;;;4.30;;
4430;SDS011;2228;48.140;11.488;2023-02-01T03:46:24;7.78;;;4.00;;
4430;SDS011;2228;48.140;11.488;2023-02-01T03:49:00;7.00;;;3.73;;
4430;SDS011;2228;48.140;11.488;2023-02-01T03:51:39;6.63;;;4.30;;
4430;SDS011;2228;48.140;11.488;2023-02-01T03:54:10;5.25;;;3.85;;
4430;SDS011;2228;48.140;11.488;2023-02-01T03:56:41;6.80;;;4.05;;
4430;SDS011;2228;48.140;11.488;2023-02-01T03:59:11;7.80;;;4.50;;
4430;SDS011;2228;48.140;11.488;2023-02-01T04:01:40;5.95;;;3.78;;
4430;SDS011;2228;48.140;11.488;2023-02-01T04:04:09;7.65;;;4.43;;
4430;SDS011;2228;48.140;11.488;2023-02-01T04:06:45;7.15;;;4.38;;
4430;SDS011;2228;48.140;11.488;2023-02-01T04:09:14;6.18;;;3.78;;
4430;SDS011;2228;48.140;11.488;2023-02-01T04:11:43;8.88;;;4.20;;
4430;SDS011;2228;48.140;11.488;2023-02-01T04:14:12;7.63;;;4.00;;
4430;SDS011;2228;48.140;11.488;2023-02-01T04:16:39;8.07;;;4.10;;
4430;SDS011;2228;48.140;11.488;2023-02-01T04:19:07;5.70;;;3.72;;
4430;SDS011;2228;48.140;11.488;2023-02-01T04:21:34;4.75;;;3.40;;
4430;SDS011;2228;48.140;11.488;2023-02-01T04:24:03;10.85;;;4.50;;
4430;SDS011;2228;48.140;11.488;2023-02-01T04:26:34;5.60;;;3.80;;
4430;SDS011;2228;48.140;11.488;2023-02-01T04:29:01;8.63;;;4.10;;
4430;SDS011;2228;48.140;11.488;2023-02-01T04:31:28;9.38;;;4.10;;
4430;SDS011;2228;48.140;11.488;2023-02-01T04:33:56;7.25;;;4.10;;
4430;SDS011;2228;48.140;11.488;2023-02-01T04:36:26;6.57;;;3.60;;
4430;SDS011;2228;48.140;11.488;2023-02-01T04:38:55;6.55;;;3.80;;
4430;SDS011;2228;48.140;11.488;2023-02-01T04:41:23;7.55;;;4.10;;
4430;SDS011;2228;48.140;11.488;2023-02-01T04:44:02;6.38;;;3.95;;
4430;SDS011;2228;48.140;11.488;2023-02-01T04:46:32;6.25;;;4.10;;
4430;SDS011;2228;48.140;11.488;2023-02-01T04:49:00;9.68;;;4.97;;
4430;SDS011;2228;48.140;11.488;2023-02-01T04:51:27;10.07;;;4.78;;
4430;SDS011;2228;48.140;11.488;2023-02-01T04:53:55;6.10;;;4.00;;
4430;SDS011;2228;48.140;11.488;2023-02-01T04:56:22;6.80;;;3.50;;
4430;SDS011;2228;48.140;11.488;2023-02-01T04:58:49;6.83;;;4.50;;
4430;SDS011;2228;48.140;11.488;2023-02-01T05:01:19;8.07;;;4.32;;
4430;SDS011;2228;48.140;11.488;2023-02-01T05:03:46;6.45;;;3.50;;
4430;SDS011;2228;48.140;11.488;2023-02-01T05:06:15;9.25;;;5.32;;
4430;SDS011;2228;48.140;11.488;2023-02-01T05:08:42;8.37;;;4.60;;
4430;SDS011;2228;48.140;11.488;2023-02-01T05:11:09;7.25;;;4.43;;
4430;SDS011;2228;48.140;11.488;2023-02-01T05:13:57;6.38;;;4.47;;
4430;SDS011;2228;48.140;11.488;2023-02-01T05:16:25;8.13;;;4.65;;
4430;SDS011;2228;48.140;11.488;2023-02-01T05:18:54;6.60;;;4.25;;
4430;SDS011;2228;48.140;11.488;2023-02-01T05:21:21;6.78;;;4.20;;
4430;SDS011;2228;48.140;11.488;2023-02-01T05:23:49;7.20;;;4.50;;
4430;SDS011;2228;48.140;11.488;2023-02-01T05:26:33;6.93;;;4.75;;
4430;SDS011;2228;48.140;11.488;2023-02-01T05:29:00;10.93;;;5.28;;
4430;SDS011;2228;48.140;11.488;2023-02-01T05:31:28;7.65;;;4.55;;
4430;SDS011;2228;48.140;11.488;2023-02-01T05:33:55;8.80;;;4.63;;
4430;SDS011;2228;48.140;11.488;2023-02-01T05:36:22;8.52;;;4.93;;
4430;SDS011;2228;48.140;11.488;2023-02-01T05:38:49;8.30;;;5.22;;
4430;SDS011;2228;48.140;11.488;2023-02-01T05:41:16;8.88;;;4.88;;
4430;SDS011;2228;48.140;11.488;2023-02-01T05:43:43;7.80;;;4.70;;
4430;SDS011;2228;48.140;11.488;2023-02-01T05:46:11;7.90;;;5.00;;
4430;SDS011;2228;48.140;11.488;2023-02-01T05:48:39;7.25;;;4.38;;
4430;SDS011;2228;48.140;11.488;2023-02-01T05:51:06;8.50;;;5.20;;
4430;SDS011;2228;48.140;11.488;2023-02-01T05:53:34;7.27;;;4.87;;
4430;SDS011;2228;48.140;11.488;2023-02-01T05:56:01;6.72;;;4.63;;
4430;SDS011;2228;48.140;11.488;2023-02-01T05:58:28;6.40;;;3.80;;
4430;SDS011;2228;48.140;11.488;2023-02-01T06:00:56;10.07;;;5.38;;
4430;SDS011;2228;48.140;11.488;2023-02-01T06:03:27;5.60;;;4.10;;
4430;SDS011;2228;48.140;11.488;2023-02-01T06:05:55;10.50;;;4.80;;
4430;SDS011;2228;48.140;11.488;2023-02-01T06:08:22;8.47;;;4.40;;
4430;SDS011;2228;48.140;11.488;2023-02-01T06:10:50;6.57;;;4.80;;
4430;SDS011;2228;48.140;11.488;2023-02-01T06:13:22;6.90;;;4.15;;
4430;SDS011;2228;48.140;11.488;2023-02-01T06:15:50;8.38;;;4.38;;
4430;SDS011;2228;48.140;11.488;2023-02-01T06:18:17;6.07;;;3.83;;
4430;SDS011;2228;48.140;11.488;2023-02-01T06:20:44;8.82;;;4.88;;
4430;SDS011;2228;48.140;11.488;2023-02-01T06:23:12;6.73;;;4.20;;
4430;SDS011;2228;48.140;11.488;2023-02-01T06:25:40;8.45;;;4.40;;
4430;SDS011;2228;48.140;11.488;2023-02-01T06:28:07;7.07;;;4.50;;
4430;SDS011;2228;48.140;11.488;2023-02-01T06:30:34;9.13;;;4.80;;
4430;SDS011;2228;48.140;11.488;2023-02-01T06:33:01;8.23;;;4.27;;
4430;SDS011;2228;48.140;11.488;2023-02-01T06:35:28;7.13;;;4.30;;
4430;SDS011;2228;48.140;11.488;2023-02-01T06:37:55;10.02;;;4.20;;
4430;SDS011;2228;48.140;11.488;2023-02-01T06:40:24;6.60;;;4.03;;
4430;SDS011;2228;48.140;11.488;2023-02-01T06:42:51;5.80;;;3.70;;
4430;SDS011;2228;48.140;11.488;2023-02-01T06:45:18;7.35;;;4.00;;
4430;SDS011;2228;48.140;11.488;2023-02-01T06:47:45;8.02;;;4.88;;
4430;SDS011;2228;48.140;11.488;2023-02-01T06:50:12;8.68;;;4.50;;
4430;SDS011;2228;48.140;11.488;2023-02-01T06:52:39;6.80;;;4.10;;
4430;SDS011;2228;48.140;11.488;2023-02-01T06:55:06;5.50;;;3.63;;
4430;SDS011;2228;48.140;11.488;2023-02-01T06:57:35;7.35;;;3.70;;
4430;SDS011;2228;48.140;11.488;2023-02-01T07:00:02;7.00;;;4.37;;
4430;SDS011;2228;48.140;11.488;2023-02-01T07:02:30;7.22;;;4.05;;
4430;SDS011;2228;48.140;11.488;2023-02-01T07:04:57;8.23;;;4.22;;
4430;SDS011;2228;48.140;11.488;2023-02-01T07:07:24;6.80;;;4.10;;
4430;SDS011;2228;48.140;11.488;2023-02-01T07:09:51;8.63;;;4.60;;
4430;SDS011;2228;48.140;11.488;2023-02-01T07:12:18;8.15;;;3.72;;
4430;SDS011;2228;48.140;11.488;2023-02-01T07:14:47;6.45;;;3.80;;
4430;SDS011;2228;48.140;11.488;2023-02-01T07:17:13;6.70;;;3.90;;
4430;SDS011;2228;48.140;11.488;2023-02-01T07:19:42;8.30;;;3.90;;
4430;SDS011;2228;48.140;11.488;2023-02-01T07:22:09;5.53;;;3.40;;
4430;SDS011;2228;48.140;11.488;2023-02-01T07:24:36;6.07;;;3.57;;
4430;SDS011;2228;48.140;11.488;2023-02-01T07:27:03;6.45;;;3.05;;
4430;SDS011;2228;48.140;11.488;2023-02-01T07:29:30;5.32;;;3.15;;
4430;SDS011;2228;48.140;11.488;2023-02-01T07:31:59;5.32;;;3.15;;
4430;SDS011;2228;48.140;11.488;2023-02-01T07:34:27;3.87;;;2.50;;
4430;SDS011;2228;48.140;11.488;2023-02-01T07:36:55;6.05;;;3.05;;
4430;SDS011;2228;48.140;11.488;2023-02-01T07:39:22;4.55;;;3.30;;
4430;SDS011;2228;48.140;11.488;2023-02-01T07:41:49;6.32;;;2.80;;
4430;SDS011;2228;48.140;11.488;2023-02-01T07:44:16;4.57;;;2.65;;
4430;SDS011;2228;48.140;11.488;2023-02-01T07:46:47;4.80;;;3.00;;
4430;SDS011;2228;48.140;11.488;2023-02-01T07:49:16;5.60;;;3.00;;
4430;SDS011;2228;48.140;11.488;2023-02-01T07:51:43;3.00;;;2.05;;
4430;SDS011;2228;48.140;11.488;2023-02-01T07:54:10;4.22;;;2.70;;
4430;SDS011;2228;48.140;11.488;2023-02-01T07:56:37;4.53;;;2.70;;
4430;SDS011;2228;48.140;11.488;2023-02-01T07:59:04;3.72;;;2.50;;
4430;SDS011;2228;48.140;11.488;2023-02-01T08:01:32;4.13;;;2.80;;
4430;SDS011;2228;48.140;11.488;2023-02-01T08:03:58;4.05;;;2.40;;
4430;SDS011;2228;48.140;11.488;2023-02-01T08:06:29;5.97;;;3.17;;
4430;SDS011;2228;48.140;11.488;2023-02-01T08:08:57;3.25;;;2.30;;
4430;SDS011;2228;48.140;11.488;2023-02-01T08:11:24;5.72;;;2.40;;
4430;SDS011;2228;48.140;11.488;2023-02-01T08:13:52;6.67;;;2.37;;
4430;SDS011;2228;48.140;11.488;2023-02-01T08:16:20;3.67;;;2.25;;
4430;SDS011;2228;48.140;11.488;2023-02-01T08:18:48;6.10;;;3.10;;
4430;SDS011;2228;48.140;11.488;2023-02-01T08:21:16;3.58;;;1.95;;
4430;SDS011;2228;48.140;11.488;2023-02-01T08:23:46;5.38;;;2.95;;
4430;SDS011;2228;48.140;11.488;2023-02-01T08:26:14;6.82;;;2.97;;
4430;SDS011;2228;48.140;11.488;2023-02-01T08:28:43;4.38;;;2.35;;
4430;SDS011;2228;48.140;11.488;2023-02-01T08:31:14;5.57;;;2.55;;
4430;SDS011;2228;48.140;11.488;2023-02-01T08:33:43;5.50;;;2.30;;
4430;SDS011;2228;48.140;11.488;2023-02-01T08:36:10;4.75;;;2.75;;
4430;SDS011;2228;48.140;11.488;2023-02-01T08:38:38;3.50;;;2.60;;
4430;SDS011;2228;48.140;11.488;2023-02-01T08:41:08;5.00;;;2.60;;
4430;SDS011;2228;48.140;11.488;2023-02-01T08:43:36;4.35;;;2.35;;
4430;SDS011;2228;48.140;11.488;2023-02-01T08:46:04;3.92;;;2.58;;
4430;SDS011;2228;48.140;11.488;2023-02-01T08:48:32;5.97;;;2.60;;
4430;SDS011;2228;48.140;11.488;2023-02-01T08:51:00;3.90;;;2.30;;
4430;SDS011;2228;48.140;11.488;2023-02-01T08:53:28;5.13;;;2.70;;
4430;SDS011;2228;48.140;11.488;2023-02-01T08:55:55;2.78;;;2.08;;
4430;SDS011;2228;48.140;11.488;2023-02-01T08:58:23;5.30;;;2.50;;
4430;SDS011;2228;48.140;11.488;2023-02-01T09:00:51;5.38;;;2.50;;
4430;SDS011;2228;48.140;11.488;2023-02-01T09:03:18;4.50;;;2.30;;
4430;SDS011;2228;48.140;11.488;2023-02-01T09:05:45;5.40;;;2.50;;
4430;SDS011;2228;48.140;11.488;2023-02-01T09:08:12;4.80;;;2.28;;
4430;SDS011;2228;48.140;11.488;2023-02-01T09:10:40;7.90;;;2.77;;
4430;SDS011;2228;48.140;11.488;2023-02-01T09:13:08;4.20;;;2.50;;
4430;SDS011;2228;48.140;11.488;2023-02-01T09:15:37;7.07;;;2.78;;
4430;SDS011;2228;48.140;11.488;2023-02-01T09:18:04;4.25;;;2.65;;
4430;SDS011;2228;48.140;11.488;2023-02-01T09:20:31;6.13;;;2.67;;
4430;SDS011;2228;48.140;11.488;2023-02-01T09:22:58;9.20;;;2.15;;
4430;SDS011;2228;48.140;11.488;2023-02-01T09:25:26;3.55;;;2.10;;
4430;SDS011;2228;48.140;11.488;2023-02-01T09:27:53;4.82;;;3.10;;
4430;SDS011;2228;48.140;11.488;2023-02-01T09:30:20;4.60;;;2.40;;
4430;SDS011;2228;48.140;11.488;2023-02-01T09:32:49;3.45;;;2.30;;
4430;SDS011;2228;48.140;11.488;2023-02-01T09:35:16;3.80;;;2.37;;
4430;SDS011;2228;48.140;11.488;2023-02-01T09:37:43;4.38;;;2.40;;
4430;SDS011;2228;48.140;11.488;2023-02-01T09:40:12;3.90;;;2.40;;
4430;SDS011;2228;48.140;11.488;2023-02-01T09:42:51;5.20;;;2.33;;
4430;SDS011;2228;48.140;11.488;2023-02-01T09:45:32;4.90;;;2.30;;
4430;SDS011;2228;48.140;11.488;2023-02-01T09:48:11;6.22;;;2.28;;
4430;SDS011;2228;48.140;11.488;2023-02-01T09:50:43;5.18;;;2.50;;
4430;SDS011;2228;48.140;11.488;2023-02-01T09:53:15;6.33;;;2.00;;
4430;SDS011;2228;48.140;11.488;2023-02-01T09:55:48;3.92;;;2.20;;
4430;SDS011;2228;48.140;11.488;2023-02-01T09:58:18;5.47;;;2.50;;
4430;SDS011;2228;48.140;11.488;2023-02-01T10:00:50;4.57;;;2.85;;
4430;SDS011;2228;48.140;11.488;2023-02-01T10:03:21;5.18;;;2.72;;
4430;SDS011;2228;48.140;11.488;2023-02-01T10:06:11;3.83;;;1.90;;
4430;SDS011;2228;48.140;11.488;2023-02-01T10:08:59;4.93;;;2.85;;
4430;SDS011;2228;48.140;11.488;2023-02-01T10:11:48;4.18;;;2.80;;
4430;SDS011;2228;48.140;11.488;2023-02-01T10:14:31;3.50;;;2.30;;
4430;SDS011;2228;48.140;11.488;2023-02-01T10:17:10;7.38;;;3.03;;
4430;SDS011;2228;48.140;11.488;2023-02-01T10:19:49;11.20;;;4.32;;
4430;SDS011;2228;48.140;11.488;2023-02-01T10:22:30;5.80;;;2.47;;
4430;SDS011;2228;48.140;11.488;2023-02-01T10:25:04;5.63;;;2.67;;
4430;SDS011;2228;48.140;11.488;2023-02-01T10:27:39;4.80;;;2.55;;
4430;SDS011;2228;48.140;11.488;2023-02-01T10:30:13;2.88;;;2.15;;
4430;SDS011;2228;48.140;11.488;2023-02-01T10:32:47;3.70;;;2.60;;
4430;SDS011;2228;48.140;11.488;2023-02-01T10:35:18;5.10;;;2.55;;
4430;SDS011;2228;48.140;11.488;2023-02-01T10:37:48;3.38;;;2.10;;
4430;SDS011;2228;48.140;11.488;2023-02-01T10:40:16;5.32;;;2.10;;
4430;SDS011;2228;48.140;11.488;2023-02-01T10:42:48;4.03;;;2.10;;
4430;SDS011;2228;48.140;11.488;2023-02-01T10:45:17;3.65;;;1.70;;
4430;SDS011;2228;48.140;11.488;2023-02-01T10:47:48;4.15;;;2.42;;
4430;SDS011;2228;48.140;11.488;2023-02-01T10:50:21;4.80;;;2.65;;
4430;SDS011;2228;48.140;11.488;2023-02-01T10:53:00;4.82;;;2.30;;
4430;SDS011;2228;48.140;11.488;2023-02-01T10:55:33;6.22;;;2.60;;
4430;SDS011;2228;48.140;11.488;2023-02-01T10:58:04;2.72;;;2.00;;
4430;SDS011;2228;48.140;11.488;2023-02-01T11:00:35;5.10;;;2.35;;
4430;SDS011;2228;48.140;11.488;2023-02-01T11:03:20;4.40;;;2.88;;
4430;SDS011;2228;48.140;11.488;2023-02-01T11:06:03;3.63;;;2.50;;
4430;SDS011;2228;48.140;11.488;2023-02-01T11:08:47;3.70;;;2.17;;
4430;SDS011;2228;48.140;11.488;2023-02-01T11:11:16;4.00;;;2.60;;
4430;SDS011;2228;48.140;11.488;2023-02-01T11:13:44;2.92;;;2.20;;
4430;SDS011;2228;48.140;11.488;2023-02-01T11:16:18;4.18;;;2.30;;
4430;SDS011;2228;48.140;11.488;2023-02-01T11:18:45;4.45;;;2.60;;
4430;SDS011;2228;48.140;11.488;2023-02-01T11:21:21;4.78;;;2.42;;
4430;SDS011;2228;48.140;11.488;2023-02-01T11:23:48;4.18;;;2.20;;
4430;SDS011;2228;48.140;11.488;2023-02-01T11:26:19;4.80;;;2.85;;
4430;SDS011;2228;48.140;11.488;2023-02-01T11:28:51;4.53;;;2.67;;
4430;SDS011;2228;48.140;11.488;2023-02-01T11:31:20;5.15;;;2.25;;
4430;SDS011;2228;48.140;11.488;2023-02-01T11:33:50;4.20;;;2.33;;
4430;SDS011;2228;48.140;11.488;2023-02-01T11:36:23;3.45;;;2.03;;
4430;SDS011;2228;48.140;11.488;2023-02-01T11:38:53;4.38;;;2.28;;
4430;SDS011;2228;48.140;11.488;2023-02-01T11:41:33;3.78;;;2.47;;
4430;SDS011;2228;48.140;11.488;2023-02-01T11:44:01;4.72;;;3.00;;
4430;SDS011;2228;48.140;11.488;2023-02-01T11:46:42;4.60;;;2.17;;
4430;SDS011;2228;48.140;11.488;2023-02-01T11:49:19;3.93;;;2.63;;
4430;SDS011;2228;48.140;11.488;2023-02-01T11:51:53;5.17;;;3.10;;
4430;SDS011;2228;48.140;11.488;2023-02-01T11:54:31;5.35;;;3.10;;
4430;SDS011;2228;48.140;11.488;2023-02-01T11:57:16;4.57;;;2.72;;
4430;SDS011;2228;48.140;11.488;2023-02-01T12:00:00;6.22;;;3.42;;
4430;SDS011;2228;48.140;11.488;2023-02-01T12:02:41;8.02;;;4.40;;
4430;SDS011;2228;48.140;11.488;2023-02-01T12:05:25;5.20;;;3.30;;
4430;SDS011;2228;48.140;11.488;2023-02-01T12:08:07;6.10;;;3.10;;
4430;SDS011;2228;48.140;11.488;2023-02-01T12:10:48;7.35;;;3.40;;
4430;SDS011;2228;48.140;11.488;2023-02-01T12:13:27;7.10;;;3.33;;
4430;SDS011;2228;48.140;11.488;2023-02-01T12:16:09;5.37;;;2.17;;
4430;SDS011;2228;48.140;11.488;2023-02-01T12:18:52;6.05;;;3.55;;
4430;SDS011;2228;48.140;11.488;2023-02-01T12:21:31;6.60;;;3.72;;
4430;SDS011;2228;48.140;11.488;2023-02-01T12:27:27;7.22;;;3.38;;
4430;SDS011;2228;48.140;11.488;2023-02-01T12:30:18;5.05;;;3.17;;
4430;SDS011;2228;48.140;11.488;2023-02-01T12:33:02;6.75;;;3.85;;
4430;SDS011;2228;48.140;11.488;2023-02-01T12:35:42;6.53;;;3.15;;
4430;SDS011;2228;48.140;11.488;2023-02-01T12:38:19;8.13;;;3.90;;
4430;SDS011;2228;48.140;11.488;2023-02-01T12:41:03;6.35;;;3.40;;
4430;SDS011;2228;48.140;11.488;2023-02-01T12:43:44;7.93;;;3.00;;
4430;SDS011;2228;48.140;11.488;2023-02-01T12:46:15;4.82;;;2.50;;
4430;SDS011;2228;48.140;11.488;2023-02-01T12:48:50;11.82;;;2.70;;
4430;SDS011;2228;48.140;11.488;2023-02-01T12:51:24;5.38;;;3.13;;
4430;SDS011;2228;48.140;11.488;2023-02-01T12:53:55;9.60;;;4.30;;
4430;SDS011;2228;48.140;11.488;2023-02-01T12:56:37;7.28;;;2.90;;
4430;SDS011;2228;48.140;11.488;2023-02-01T12:59:13;6.28;;;2.90;;
4430;SDS011;2228;48.140;11.488;2023-02-01T13:01:47;7.53;;;2.40;;
4430;SDS011;2228;48.140;11.488;2023-02-01T13:04:24;6.00;;;2.30;;
4430;SDS011;2228;48.140;11.488;2023-02-01T13:06:57;5.85;;;2.60;;
4430;SDS011;2228;48.140;11.488;2023-02-01T13:09:30;9.57;;;2.60;;
4430;SDS011;2228;48.140;11.488;2023-02-01T13:12:05;6.53;;;2.57;;
4430;SDS011;2228;48.140;11.488;2023-02-01T13:14:40;8.00;;;2.42;;
4430;SDS011;2228;48.140;11.488;2023-02-01T13:17:12;3.50;;;2.20;;
4430;SDS011;2228;48.140;11.488;2023-02-01T13:19:43;5.28;;;3.05;;
4430;SDS011;2228;48.140;11.488;2023-02-01T13:22:17;6.88;;;2.53;;
4430;SDS011;2228;48.140;11.488;2023-02-01T13:24:48;4.25;;;2.55;;
4430;SDS011;2228;48.140;11.488;2023-02-01T13:27:18;6.68;;;2.90;;
4430;SDS011;2228;48.140;11.488;2023-02-01T13:29:48;3.87;;;2.50;;
4430;SDS011;2228;48.140;11.488;2023-02-01T13:32:28;4.43;;;2.58;;
4430;SDS011;2228;48.140;11.488;2023-02-01T13:35:25;4.68;;;2.42;;
4430;SDS011;2228;48.140;11.488;2023-02-01T13:38:23;4.90;;;2.58;;
4430;SDS011;2228;48.140;11.488;2023-02-01T13:41:16;3.83;;;2.70;;
4430;SDS011;2228;48.140;11.488;2023-02-01T13:43:53;4.72;;;2.67;;
4430;SDS011;2228;48.140;11.488;2023-02-01T13:46:24;7.00;;;2.90;;
4430;SDS011;2228;48.140;11.488;2023-02-01T13:48:52;9.70;;;3.53;;
4430;SDS011;2228;48.140;11.488;2023-02-01T13:51:32;6.10;;;2.80;;
4430;SDS011;2228;48.140;11.488;2023-02-01T13:54:06;7.18;;;3.42;;
4430;SDS011;2228;48.140;11.488;2023-02-01T13:56:49;4.38;;;2.97;;
4430;SDS011;2228;48.140;11.488;2023-02-01T13:59:36;4.80;;;2.88;;
4430;SDS011;2228;48.140;11.488;2023-02-01T14:08:20;5.55;;;2.70;;
4430;SDS011;2228;48.140;11.488;2023-02-01T14:10:50;5.82;;;3.10;;
4430;SDS011;2228;48.140;11.488;2023-02-01T14:13:25;4.90;;;2.28;;
4430;SDS011;2228;48.140;11.488;2023-02-01T14:21:27;3.80;;;2.67;;
4430;SDS011;2228;48.140;11.488;2023-02-01T14:23:58;3.97;;;2.40;;
4430;SDS011;2228;48.140;11.488;2023-02-01T14:26:40;3.80;;;2.30;;
4430;SDS011;2228;48.140;11.488;2023-02-01T14:32:03;4.18;;;1.92;;
4430;SDS011;2228;48.140;11.488;2023-02-01T14:34:38;2.53;;;1.80;;
4430;SDS011;2228;48.140;11.488;2023-02-01T14:37:23;5.32;;;2.10;;
4430;SDS011;2228;48.140;11.488;2023-02-01T14:39:54;2.10;;;1.75;;
4430;SDS011;2228;48.140;11.488;2023-02-01T14:42:27;4.50;;;2.70;;
4430;SDS011;2228;48.140;11.488;2023-02-01T14:45:45;5.20;;;3.13;;
4430;SDS011;2228;48.140;11.488;2023-02-01T14:51:07;5.70;;;2.25;;
4430;SDS011;2228;48.140;11.488;2023-02-01T14:53:37;5.20;;;2.40;;
4430;SDS011;2228;48.140;11.488;2023-02-01T14:56:09;5.97;;;2.38;;
4430;SDS011;2228;48.140;11.488;2023-02-01T14:58:41;4.53;;;2.30;;
4430;SDS011;2228;48.140;11.488;2023-02-01T15:01:16;3.92;;;2.30;;
4430;SDS011;2228;48.140;11.488;2023-02-01T15:03:48;3.20;;;1.80;;
4430;SDS011;2228;48.140;11.488;2023-02-01T15:06:32;6.75;;;2.10;;
4430;SDS011;2228;48.140;11.488;2023-02-01T15:09:04;5.18;;;2.38;;
4430;SDS011;2228;48.140;11.488;2023-02-01T15:14:21;9.13;;;2.20;;
4430;SDS011;2228;48.140;11.488;2023-02-01T15:16:49;6.30;;;2.47;;
4430;SDS011;2228;48.140;11.488;2023-02-01T15:19:19;7.78;;;2.63;;
4430;SDS011;2228;48.140;11.488;2023-02-01T15:21:49;4.60;;;2.25;;
4430;SDS011;2228;48.140;11.488;2023-02-01T15:24:19;5.38;;;1.83;;
4430;SDS011;2228;48.140;11.488;2023-02-01T15:26:48;7.35;;;2.78;;
4430;SDS011;2228;48.140;11.488;2023-02-01T15:29:25;4.75;;;2.53;;
4430;SDS011;2228;48.140;11.488;2023-02-01T15:31:57;4.50;;;1.85;;
4430;SDS011;2228;48.140;11.488;2023-02-01T15:34:43;3.72;;;1.70;;
4430;SDS011;2228;48.140;11.488;2023-02-01T15:37:13;6.60;;;2.08;;
4430;SDS011;2228;48.140;11.488;2023-02-01T15:42:30;9.18;;;2.40;;
4430;SDS011;2228;48.140;11.488;2023-02-01T15:44:57;3.53;;;1.83;;
4430;SDS011;2228;48.140;11.488;2023-02-01T15:47:28;6.97;;;2.67;;
4430;SDS011;2228;48.140;11.488;2023-02-01T15:49:58;6.43;;;2.10;;
4430;SDS011;2228;48.140;11.488;2023-02-01T15:52:31;6.05;;;2.42;;
4430;SDS011;2228;48.140;11.488;2023-02-01T15:55:02;7.53;;;2.80;;
4430;SDS011;2228;48.140;11.488;2023-02-01T15:57:31;5.10;;;2.50;;
4430;SDS011;2228;48.140;11.488;2023-02-01T16:00:02;7.38;;;2.80;;
4430;SDS011;2228;48.140;11.488;2023-02-01T16:02:33;8.40;;;2.50;;
4430;SDS011;2228;48.140;11.488;2023-02-01T16:05:03;4.13;;;2.20;;
4430;SDS011;2228;48.140;11.488;2023-02-01T16:07:34;8.70;;;2.30;;
4430;SDS011;2228;48.140;11.488;2023-02-01T16:10:01;7.28;;;2.00;;